sensor_id;sensor_type;location;lat;lon;timestamp;temperature;humidity
59556;DHT22;45374;52.746;6.304;2023-06-10T00:02:11;17.20;99.90
59556;DHT22;45374;52.746;6.304;2023-06-10T00:04:37;17.20;99.90
59556;DHT22;45374;52.746;6.304;2023-06-10T00:07:03;17.10;99.90
59556;DHT22;45374;52.746;6.304;2023-06-10T00:09:29;17.10;99.90
59556;DHT22;45374;52.746;6.304;2023-06-10T00:11:55;17.10;99.90
59556;DHT22;45374;52.746;6.304;2023-06-10T00:14:20;17.10;99.90
59556;DHT22;45374;52.746;6.304;2023-06-10T00:16:46;17.10;99.90
59556;DHT22;45374;52.746;6.304;2023-06-10T00:19:11;17.10;99.90
59556;DHT22;45374;52.746;6.304;2023-06-10T00:21:39;17.10;99.90
59556;DHT22;45374;52.746;6.304;2023-06-10T00:24:06;17.00;99.90
59556;DHT22;45374;52.746;6.304;2023-06-10T00:26:33;17.00;99.90
59556;DHT22;45374;52.746;6.304;2023-06-10T00:28:59;17.00;99.90
59556;DHT22;45374;52.746;6.304;2023-06-10T00:31:25;17.00;99.90
59556;DHT22;45374;52.746;6.304;2023-06-10T00:33:52;17.00;99.90
59556;DHT22;45374;52.746;6.304;2023-06-10T00:36:17;16.90;99.90
59556;DHT22;45374;52.746;6.304;2023-06-10T00:38:43;16.90;99.90
59556;DHT22;45374;52.746;6.304;2023-06-10T00:41:08;16.90;99.90
59556;DHT22;45374;52.746;6.304;2023-06-10T00:43:34;16.90;99.90
59556;DHT22;45374;52.746;6.304;2023-06-10T00:46:00;16.80;99.90
59556;DHT22;45374;52.746;6.304;2023-06-10T00:48:26;16.80;99.90
59556;DHT22;45374;52.746;6.304;2023-06-10T00:50:52;16.80;99.90
59556;DHT22;45374;52.746;6.304;2023-06-10T00:53:18;16.80;99.90
59556;DHT22;45374;52.746;6.304;2023-06-10T00:55:44;16.80;99.90
59556;DHT22;45374;52.746;6.304;2023-06-10T00:58:10;16.70;99.90
59556;DHT22;45374;52.746;6.304;2023-06-10T01:00:36;16.70;99.90
59556;DHT22;45374;52.746;6.304;2023-06-10T01:03:02;16.70;99.90
59556;DHT22;45374;52.746;6.304;2023-06-10T01:05:34;16.60;99.90
59556;DHT22;45374;52.746;6.304;2023-06-10T01:08:12;16.60;99.90
59556;DHT22;45374;52.746;6.304;2023-06-10T01:10:43;16.60;99.90
59556;DHT22;45374;52.746;6.304;2023-06-10T01:13:11;16.60;99.90
59556;DHT22;45374;52.746;6.304;2023-06-10T01:15:38;16.50;99.90
59556;DHT22;45374;52.746;6.304;2023-06-10T01:18:06;16.50;99.90
59556;DHT22;45374;52.746;6.304;2023-06-10T01:20:35;16.40;99.90
59556;DHT22;45374;52.746;6.304;2023-06-10T01:23:02;16.40;99.90
59556;DHT22;45374;52.746;6.304;2023-06-10T01:25:29;16.50;99.90
59556;DHT22;45374;52.746;6.304;2023-06-10T01:28:25;16.40;99.90
59556;DHT22;45374;52.746;6.304;2023-06-10T01:33:37;16.40;99.90
59556;DHT22;45374;52.746;6.304;2023-06-10T01:36:04;16.40;99.90
59556;DHT22;45374;52.746;6.304;2023-06-10T01:38:33;16.40;99.90
59556;DHT22;45374;52.746;6.304;2023-06-10T01:41:03;16.40;99.90
59556;DHT22;45374;52.746;6.304;2023-06-10T01:43:33;16.30;99.90
59556;DHT22;45374;52.746;6.304;2023-06-10T01:45:58;16.30;99.90
59556;DHT22;45374;52.746;6.304;2023-06-10T01:48:24;16.30;99.90
59556;DHT22;45374;52.746;6.304;2023-06-10T01:50:49;16.20;99.90
59556;DHT22;45374;52.746;6.304;2023-06-10T01:53:15;16.20;99.90
59556;DHT22;45374;52.746;6.304;2023-06-10T01:55:40;16.20;99.90
59556;DHT22;45374;52.746;6.304;2023-06-10T01:58:06;16.10;99.90
59556;DHT22;45374;52.746;6.304;2023-06-10T02:00:31;16.10;99.90
59556;DHT22;45374;52.746;6.304;2023-06-10T02:02:57;16.00;99.90
59556;DHT22;45374;52.746;6.304;2023-06-10T02:05:22;16.10;99.90
59556;DHT22;45374;52.746;6.304;2023-06-10T02:07:48;16.00;99.90
59556;DHT22;45374;52.746;6.304;2023-06-10T02:10:14;15.90;99.90
59556;DHT22;45374;52.746;6.304;2023-06-10T02:12:39;15.90;99.90
59556;DHT22;45374;52.746;6.304;2023-06-10T02:15:05;15.80;99.90
59556;DHT22;45374;52.746;6.304;2023-06-10T02:17:31;15.60;99.90
59556;DHT22;45374;52.746;6.304;2023-06-10T02:19:57;15.50;99.90
59556;DHT22;45374;52.746;6.304;2023-06-10T02:22:25;15.30;99.90
59556;DHT22;45374;52.746;6.304;2023-06-10T02:24:50;15.30;99.90
59556;DHT22;45374;52.746;6.304;2023-06-10T02:27:17;15.20;99.90
59556;DHT22;45374;52.746;6.304;2023-06-10T02:29:43;15.30;99.90
59556;DHT22;45374;52.746;6.304;2023-06-10T02:32:09;15.30;99.90
59556;DHT22;45374;52.746;6.304;2023-06-10T02:34:34;15.30;99.90
59556;DHT22;45374;52.746;6.304;2023-06-10T02:37:01;15.30;99.90
59556;DHT22;45374;52.746;6.304;2023-06-10T02:39:28;15.30;99.90
59556;DHT22;45374;52.746;6.304;2023-06-10T02:41:53;15.30;99.90
59556;DHT22;45374;52.746;6.304;2023-06-10T02:44:19;15.30;99.90
59556;DHT22;45374;52.746;6.304;2023-06-10T02:46:45;15.30;99.90
59556;DHT22;45374;52.746;6.304;2023-06-10T02:49:12;15.30;99.90
59556;DHT22;45374;52.746;6.304;2023-06-10T02:51:38;15.30;99.90
59556;DHT22;45374;52.746;6.304;2023-06-10T02:54:04;15.30;99.90
59556;DHT22;45374;52.746;6.304;2023-06-10T02:56:30;15.30;99.90
59556;DHT22;45374;52.746;6.304;2023-06-10T02:58:55;15.20;99.90
59556;DHT22;45374;52.746;6.304;2023-06-10T03:01:21;15.30;99.90
59556;DHT22;45374;52.746;6.304;2023-06-10T03:03:46;15.30;99.90
59556;DHT22;45374;52.746;6.304;2023-06-10T03:06:13;15.20;99.90
59556;DHT22;45374;52.746;6.304;2023-06-10T03:08:40;15.20;99.90
59556;DHT22;45374;52.746;6.304;2023-06-10T03:11:05;15.20;99.90
59556;DHT22;45374;52.746;6.304;2023-06-10T03:13:32;15.10;99.90
59556;DHT22;45374;52.746;6.304;2023-06-10T03:15:57;15.20;99.90
59556;DHT22;45374;52.746;6.304;2023-06-10T03:18:27;15.10;99.90
59556;DHT22;45374;52.746;6.304;2023-06-10T03:20:54;15.10;99.90
59556;DHT22;45374;52.746;6.304;2023-06-10T03:23:20;15.10;99.90
59556;DHT22;45374;52.746;6.304;2023-06-10T03:25:46;15.10;99.90
59556;DHT22;45374;52.746;6.304;2023-06-10T03:28:11;15.10;99.90
59556;DHT22;45374;52.746;6.304;2023-06-10T03:30:37;15.10;99.90
59556;DHT22;45374;52.746;6.304;2023-06-10T03:33:03;15.10;99.90
59556;DHT22;45374;52.746;6.304;2023-06-10T03:35:29;15.10;99.90
59556;DHT22;45374;52.746;6.304;2023-06-10T03:37:55;15.10;99.90
59556;DHT22;45374;52.746;6.304;2023-06-10T03:40:20;15.10;99.90
59556;DHT22;45374;52.746;6.304;2023-06-10T03:42:46;15.10;99.90
59556;DHT22;45374;52.746;6.304;2023-06-10T03:45:11;15.10;99.90
59556;DHT22;45374;52.746;6.304;2023-06-10T03:47:38;15.10;99.90
59556;DHT22;45374;52.746;6.304;2023-06-10T03:50:07;15.10;99.90
59556;DHT22;45374;52.746;6.304;2023-06-10T03:52:33;15.10;99.90
59556;DHT22;45374;52.746;6.304;2023-06-10T03:54:59;15.10;99.90
59556;DHT22;45374;52.746;6.304;2023-06-10T03:57:25;15.20;99.90
59556;DHT22;45374;52.746;6.304;2023-06-10T03:59:51;15.20;99.90
59556;DHT22;45374;52.746;6.304;2023-06-10T04:02:17;15.20;99.90
59556;DHT22;45374;52.746;6.304;2023-06-10T04:04:43;15.20;99.90
59556;DHT22;45374;52.746;6.304;2023-06-10T04:07:08;15.20;99.90
59556;DHT22;45374;52.746;6.304;2023-06-10T04:09:34;15.20;99.90
59556;DHT22;45374;52.746;6.304;2023-06-10T04:12:01;15.20;99.90
59556;DHT22;45374;52.746;6.304;2023-06-10T04:14:27;15.20;99.90
59556;DHT22;45374;52.746;6.304;2023-06-10T04:16:53;15.20;99.90
59556;DHT22;45374;52.746;6.304;2023-06-10T04:19:18;15.20;99.90
59556;DHT22;45374;52.746;6.304;2023-06-10T04:21:44;15.30;99.90
59556;DHT22;45374;52.746;6.304;2023-06-10T04:24:09;15.30;99.90
59556;DHT22;45374;52.746;6.304;2023-06-10T04:26:35;15.30;99.90
59556;DHT22;45374;52.746;6.304;2023-06-10T04:29:01;15.40;99.90
59556;DHT22;45374;52.746;6.304;2023-06-10T04:31:27;15.40;99.90
59556;DHT22;45374;52.746;6.304;2023-06-10T04:33:53;15.50;99.90
59556;DHT22;45374;52.746;6.304;2023-06-10T04:36:19;15.50;99.90
59556;DHT22;45374;52.746;6.304;2023-06-10T04:38:44;15.60;99.90
59556;DHT22;45374;52.746;6.304;2023-06-10T04:41:10;15.60;99.90
59556;DHT22;45374;52.746;6.304;2023-06-10T04:43:35;15.70;99.90
59556;DHT22;45374;52.746;6.304;2023-06-10T04:46:01;15.70;99.90
59556;DHT22;45374;52.746;6.304;2023-06-10T04:48:27;15.80;99.90
59556;DHT22;45374;52.746;6.304;2023-06-10T04:50:52;15.90;99.90
59556;DHT22;45374;52.746;6.304;2023-06-10T04:53:18;15.90;99.90
59556;DHT22;45374;52.746;6.304;2023-06-10T04:55:43;16.00;99.90
59556;DHT22;45374;52.746;6.304;2023-06-10T04:58:09;16.10;99.90
59556;DHT22;45374;52.746;6.304;2023-06-10T05:00:35;16.10;99.90
59556;DHT22;45374;52.746;6.304;2023-06-10T05:03:00;16.20;99.90
59556;DHT22;45374;52.746;6.304;2023-06-10T05:05:26;16.30;99.90
59556;DHT22;45374;52.746;6.304;2023-06-10T05:07:51;16.40;99.90
59556;DHT22;45374;52.746;6.304;2023-06-10T05:10:17;16.40;99.90
59556;DHT22;45374;52.746;6.304;2023-06-10T05:12:43;16.50;99.90
59556;DHT22;45374;52.746;6.304;2023-06-10T05:15:08;16.60;99.90
59556;DHT22;45374;52.746;6.304;2023-06-10T05:17:34;16.70;99.90
59556;DHT22;45374;52.746;6.304;2023-06-10T05:20:03;16.70;99.90
59556;DHT22;45374;52.746;6.304;2023-06-10T05:22:29;16.80;99.90
59556;DHT22;45374;52.746;6.304;2023-06-10T05:24:54;16.90;99.90
59556;DHT22;45374;52.746;6.304;2023-06-10T05:27:20;17.00;99.90
59556;DHT22;45374;52.746;6.304;2023-06-10T05:29:47;17.00;99.90
59556;DHT22;45374;52.746;6.304;2023-06-10T05:32:13;17.10;99.90
59556;DHT22;45374;52.746;6.304;2023-06-10T05:34:38;17.20;99.90
59556;DHT22;45374;52.746;6.304;2023-06-10T05:37:04;17.30;99.90
59556;DHT22;45374;52.746;6.304;2023-06-10T05:39:30;17.40;99.90
59556;DHT22;45374;52.746;6.304;2023-06-10T05:41:56;17.40;99.90
59556;DHT22;45374;52.746;6.304;2023-06-10T05:44:24;17.50;99.90
59556;DHT22;45374;52.746;6.304;2023-06-10T05:46:50;17.60;99.90
59556;DHT22;45374;52.746;6.304;2023-06-10T05:49:16;17.70;99.90
59556;DHT22;45374;52.746;6.304;2023-06-10T05:51:41;17.80;99.90
59556;DHT22;45374;52.746;6.304;2023-06-10T05:54:07;17.90;99.90
59556;DHT22;45374;52.746;6.304;2023-06-10T05:56:33;17.90;99.90
59556;DHT22;45374;52.746;6.304;2023-06-10T05:58:58;18.00;99.90
59556;DHT22;45374;52.746;6.304;2023-06-10T06:01:24;18.10;99.90
59556;DHT22;45374;52.746;6.304;2023-06-10T06:03:50;18.20;99.90
59556;DHT22;45374;52.746;6.304;2023-06-10T06:06:15;18.20;99.90
59556;DHT22;45374;52.746;6.304;2023-06-10T06:08:41;18.30;99.90
59556;DHT22;45374;52.746;6.304;2023-06-10T06:11:06;18.40;99.90
59556;DHT22;45374;52.746;6.304;2023-06-10T06:13:32;18.50;99.90
59556;DHT22;45374;52.746;6.304;2023-06-10T06:15:57;18.50;99.90
59556;DHT22;45374;52.746;6.304;2023-06-10T06:18:23;18.60;99.90
59556;DHT22;45374;52.746;6.304;2023-06-10T06:20:50;18.60;99.90
59556;DHT22;45374;52.746;6.304;2023-06-10T06:23:15;18.70;99.90
59556;DHT22;45374;52.746;6.304;2023-06-10T06:25:41;18.80;99.90
59556;DHT22;45374;52.746;6.304;2023-06-10T06:28:07;18.90;99.90
59556;DHT22;45374;52.746;6.304;2023-06-10T06:30:34;19.00;99.90
59556;DHT22;45374;52.746;6.304;2023-06-10T06:33:00;19.10;99.90
59556;DHT22;45374;52.746;6.304;2023-06-10T06:35:26;19.20;99.90
59556;DHT22;45374;52.746;6.304;2023-06-10T06:37:51;19.20;99.90
59556;DHT22;45374;52.746;6.304;2023-06-10T06:40:17;19.30;99.90
59556;DHT22;45374;52.746;6.304;2023-06-10T06:42:42;19.40;99.90
59556;DHT22;45374;52.746;6.304;2023-06-10T06:45:08;19.50;99.90
59556;DHT22;45374;52.746;6.304;2023-06-10T06:47:34;19.50;99.90
59556;DHT22;45374;52.746;6.304;2023-06-10T06:49:59;19.60;99.90
59556;DHT22;45374;52.746;6.304;2023-06-10T06:52:25;19.70;99.90
59556;DHT22;45374;52.746;6.304;2023-06-10T06:54:51;19.70;99.90
59556;DHT22;45374;52.746;6.304;2023-06-10T06:57:17;19.90;99.90
59556;DHT22;45374;52.746;6.304;2023-06-10T06:59:42;19.90;99.90
59556;DHT22;45374;52.746;6.304;2023-06-10T07:02:08;20.00;99.90
59556;DHT22;45374;52.746;6.304;2023-06-10T07:04:34;20.10;99.90
59556;DHT22;45374;52.746;6.304;2023-06-10T07:07:00;20.10;99.90
59556;DHT22;45374;52.746;6.304;2023-06-10T07:09:25;20.20;99.90
59556;DHT22;45374;52.746;6.304;2023-06-10T07:11:51;20.30;99.90
59556;DHT22;45374;52.746;6.304;2023-06-10T07:14:16;20.40;99.90
59556;DHT22;45374;52.746;6.304;2023-06-10T07:16:42;20.50;99.90
59556;DHT22;45374;52.746;6.304;2023-06-10T07:19:08;20.50;99.90
59556;DHT22;45374;52.746;6.304;2023-06-10T07:21:33;20.60;99.90
59556;DHT22;45374;52.746;6.304;2023-06-10T07:23:59;20.60;99.90
59556;DHT22;45374;52.746;6.304;2023-06-10T07:26:25;20.70;99.90
59556;DHT22;45374;52.746;6.304;2023-06-10T07:28:51;20.80;99.90
59556;DHT22;45374;52.746;6.304;2023-06-10T07:31:17;20.90;99.90
59556;DHT22;45374;52.746;6.304;2023-06-10T07:33:43;20.90;99.90
59556;DHT22;45374;52.746;6.304;2023-06-10T07:36:09;21.00;99.90
59556;DHT22;45374;52.746;6.304;2023-06-10T07:38:35;21.00;99.90
59556;DHT22;45374;52.746;6.304;2023-06-10T07:41:00;21.20;99.90
59556;DHT22;45374;52.746;6.304;2023-06-10T07:43:26;21.20;99.90
59556;DHT22;45374;52.746;6.304;2023-06-10T07:45:52;21.30;99.90
59556;DHT22;45374;52.746;6.304;2023-06-10T07:48:17;21.40;99.90
59556;DHT22;45374;52.746;6.304;2023-06-10T07:50:43;21.50;99.90
59556;DHT22;45374;52.746;6.304;2023-06-10T07:53:09;21.60;99.90
59556;DHT22;45374;52.746;6.304;2023-06-10T07:55:34;21.60;99.90
59556;DHT22;45374;52.746;6.304;2023-06-10T07:58:00;21.70;99.90
59556;DHT22;45374;52.746;6.304;2023-06-10T08:00:25;21.80;99.90
59556;DHT22;45374;52.746;6.304;2023-06-10T08:02:51;21.80;99.90
59556;DHT22;45374;52.746;6.304;2023-06-10T08:05:17;21.90;99.90
59556;DHT22;45374;52.746;6.304;2023-06-10T08:07:43;21.90;99.90
59556;DHT22;45374;52.746;6.304;2023-06-10T08:10:09;22.00;99.90
59556;DHT22;45374;52.746;6.304;2023-06-10T08:12:35;22.10;99.90
59556;DHT22;45374;52.746;6.304;2023-06-10T08:15:01;22.20;99.90
59556;DHT22;45374;52.746;6.304;2023-06-10T08:17:26;22.30;99.90
59556;DHT22;45374;52.746;6.304;2023-06-10T08:19:52;22.30;99.90
59556;DHT22;45374;52.746;6.304;2023-06-10T08:22:18;22.40;99.90
59556;DHT22;45374;52.746;6.304;2023-06-10T08:24:43;22.40;99.90
59556;DHT22;45374;52.746;6.304;2023-06-10T08:27:09;22.50;99.90
59556;DHT22;45374;52.746;6.304;2023-06-10T08:29:35;22.60;99.90
59556;DHT22;45374;52.746;6.304;2023-06-10T08:32:01;22.70;99.90
59556;DHT22;45374;52.746;6.304;2023-06-10T08:34:26;22.70;99.90
59556;DHT22;45374;52.746;6.304;2023-06-10T08:36:52;22.80;99.90
59556;DHT22;45374;52.746;6.304;2023-06-10T08:39:21;22.90;99.90
59556;DHT22;45374;52.746;6.304;2023-06-10T08:42:11;23.00;99.90
59556;DHT22;45374;52.746;6.304;2023-06-10T08:44:40;23.10;99.90
59556;DHT22;45374;52.746;6.304;2023-06-10T08:47:16;23.30;99.90
59556;DHT22;45374;52.746;6.304;2023-06-10T08:49:46;23.40;99.90
59556;DHT22;45374;52.746;6.304;2023-06-10T08:52:16;23.50;99.90
59556;DHT22;45374;52.746;6.304;2023-06-10T08:54:47;23.60;99.90
59556;DHT22;45374;52.746;6.304;2023-06-10T08:57:14;23.70;99.90
59556;DHT22;45374;52.746;6.304;2023-06-10T08:59:41;23.80;99.90
59556;DHT22;45374;52.746;6.304;2023-06-10T09:02:07;23.90;99.90
59556;DHT22;45374;52.746;6.304;2023-06-10T09:04:34;24.00;99.90
59556;DHT22;45374;52.746;6.304;2023-06-10T09:07:02;24.00;99.90
59556;DHT22;45374;52.746;6.304;2023-06-10T09:09:29;24.10;99.90
59556;DHT22;45374;52.746;6.304;2023-06-10T09:11:56;24.20;99.90
59556;DHT22;45374;52.746;6.304;2023-06-10T09:14:22;24.30;99.90
59556;DHT22;45374;52.746;6.304;2023-06-10T09:16:48;24.30;99.90
59556;DHT22;45374;52.746;6.304;2023-06-10T09:19:15;24.40;99.90
59556;DHT22;45374;52.746;6.304;2023-06-10T09:21:41;24.40;99.90
59556;DHT22;45374;52.746;6.304;2023-06-10T09:24:07;24.30;99.90
59556;DHT22;45374;52.746;6.304;2023-06-10T09:26:32;24.40;99.90
59556;DHT22;45374;52.746;6.304;2023-06-10T09:29:07;24.40;99.90
59556;DHT22;45374;52.746;6.304;2023-06-10T09:31:38;24.50;99.90
59556;DHT22;45374;52.746;6.304;2023-06-10T09:34:14;24.60;99.90
59556;DHT22;45374;52.746;6.304;2023-06-10T09:36:41;24.60;99.90
59556;DHT22;45374;52.746;6.304;2023-06-10T09:39:18;24.60;99.90
59556;DHT22;45374;52.746;6.304;2023-06-10T09:41:45;24.70;99.90
59556;DHT22;45374;52.746;6.304;2023-06-10T09:44:21;24.80;99.90
59556;DHT22;45374;52.746;6.304;2023-06-10T09:46:49;24.90;99.90
59556;DHT22;45374;52.746;6.304;2023-06-10T09:49:19;24.90;99.90
59556;DHT22;45374;52.746;6.304;2023-06-10T09:51:52;24.90;99.90
59556;DHT22;45374;52.746;6.304;2023-06-10T09:54:18;24.90;99.90
59556;DHT22;45374;52.746;6.304;2023-06-10T09:56:47;25.00;99.90
59556;DHT22;45374;52.746;6.304;2023-06-10T09:59:12;25.00;99.90
59556;DHT22;45374;52.746;6.304;2023-06-10T10:01:38;25.00;99.90
59556;DHT22;45374;52.746;6.304;2023-06-10T10:04:04;25.10;99.90
59556;DHT22;45374;52.746;6.304;2023-06-10T10:06:30;25.20;99.90
59556;DHT22;45374;52.746;6.304;2023-06-10T10:08:56;25.20;99.90
59556;DHT22;45374;52.746;6.304;2023-06-10T10:11:22;25.30;99.90
59556;DHT22;45374;52.746;6.304;2023-06-10T10:13:52;25.40;99.90
59556;DHT22;45374;52.746;6.304;2023-06-10T10:16:36;25.50;99.90
59556;DHT22;45374;52.746;6.304;2023-06-10T10:19:11;25.50;99.90
59556;DHT22;45374;52.746;6.304;2023-06-10T10:21:47;25.60;99.90
59556;DHT22;45374;52.746;6.304;2023-06-10T10:24:20;25.60;99.90
59556;DHT22;45374;52.746;6.304;2023-06-10T10:26:48;25.60;99.90
59556;DHT22;45374;52.746;6.304;2023-06-10T10:31:56;25.70;99.90
59556;DHT22;45374;52.746;6.304;2023-06-10T10:35:25;25.70;99.90
59556;DHT22;45374;52.746;6.304;2023-06-10T10:37:43;25.80;99.90
59556;DHT22;45374;52.746;6.304;2023-06-10T10:40:10;25.80;99.90
59556;DHT22;45374;52.746;6.304;2023-06-10T10:42:37;25.80;99.90
59556;DHT22;45374;52.746;6.304;2023-06-10T10:45:04;25.80;99.40
59556;DHT22;45374;52.746;6.304;2023-06-10T10:47:31;25.80;99.90
59556;DHT22;45374;52.746;6.304;2023-06-10T10:49:58;25.90;98.20
59556;DHT22;45374;52.746;6.304;2023-06-10T10:52:25;25.90;98.20
59556;DHT22;45374;52.746;6.304;2023-06-10T10:54:53;25.90;99.80
59556;DHT22;45374;52.746;6.304;2023-06-10T10:57:23;26.00;99.90
59556;DHT22;45374;52.746;6.304;2023-06-10T11:02:41;26.10;99.80
59556;DHT22;45374;52.746;6.304;2023-06-10T11:05:18;26.10;99.00
59556;DHT22;45374;52.746;6.304;2023-06-10T11:07:55;26.20;97.50
59556;DHT22;45374;52.746;6.304;2023-06-10T11:10:31;26.20;98.90
59556;DHT22;45374;52.746;6.304;2023-06-10T11:12:57;26.20;97.90
59556;DHT22;45374;52.746;6.304;2023-06-10T11:15:25;26.30;97.90
59556;DHT22;45374;52.746;6.304;2023-06-10T11:20:51;26.30;98.90
59556;DHT22;45374;52.746;6.304;2023-06-10T11:28:35;26.40;97.80
59556;DHT22;45374;52.746;6.304;2023-06-10T11:31:00;26.40;95.30
59556;DHT22;45374;52.746;6.304;2023-06-10T11:33:26;26.40;96.40
59556;DHT22;45374;52.746;6.304;2023-06-10T11:35:52;26.40;95.90
59556;DHT22;45374;52.746;6.304;2023-06-10T11:38:18;26.50;98.40
59556;DHT22;45374;52.746;6.304;2023-06-10T11:40:53;26.60;98.40
59556;DHT22;45374;52.746;6.304;2023-06-10T11:43:19;26.60;96.00
59556;DHT22;45374;52.746;6.304;2023-06-10T11:45:45;26.60;95.40
59556;DHT22;45374;52.746;6.304;2023-06-10T11:48:12;26.60;94.90
59556;DHT22;45374;52.746;6.304;2023-06-10T11:50:38;26.60;95.80
59556;DHT22;45374;52.746;6.304;2023-06-10T11:53:04;26.60;96.20
59556;DHT22;45374;52.746;6.304;2023-06-10T11:55:50;26.60;95.00
59556;DHT22;45374;52.746;6.304;2023-06-10T11:58:21;26.60;93.40
59556;DHT22;45374;52.746;6.304;2023-06-10T12:00:54;26.60;94.60
59556;DHT22;45374;52.746;6.304;2023-06-10T12:03:21;26.70;94.10
59556;DHT22;45374;52.746;6.304;2023-06-10T12:06:01;26.70;92.60
59556;DHT22;45374;52.746;6.304;2023-06-10T12:08:28;26.80;93.80
59556;DHT22;45374;52.746;6.304;2023-06-10T12:10:55;26.80;92.10
59556;DHT22;45374;52.746;6.304;2023-06-10T12:13:21;26.80;92.50
59556;DHT22;45374;52.746;6.304;2023-06-10T12:15:46;26.80;93.00
59556;DHT22;45374;52.746;6.304;2023-06-10T12:18:20;26.90;93.70
59556;DHT22;45374;52.746;6.304;2023-06-10T12:20:46;26.90;93.80
59556;DHT22;45374;52.746;6.304;2023-06-10T12:23:12;27.00;92.40
59556;DHT22;45374;52.746;6.304;2023-06-10T12:25:39;26.90;92.30
59556;DHT22;45374;52.746;6.304;2023-06-10T12:28:05;27.00;92.30
59556;DHT22;45374;52.746;6.304;2023-06-10T12:30:32;27.00;90.70
59556;DHT22;45374;52.746;6.304;2023-06-10T12:32:58;26.90;88.60
59556;DHT22;45374;52.746;6.304;2023-06-10T12:35:26;26.90;89.80
59556;DHT22;45374;52.746;6.304;2023-06-10T12:38:03;26.90;89.70
59556;DHT22;45374;52.746;6.304;2023-06-10T12:40:34;26.90;90.50
59556;DHT22;45374;52.746;6.304;2023-06-10T12:43:00;26.90;89.80
59556;DHT22;45374;52.746;6.304;2023-06-10T12:45:39;26.90;89.30
59556;DHT22;45374;52.746;6.304;2023-06-10T12:48:09;26.90;89.00
59556;DHT22;45374;52.746;6.304;2023-06-10T12:50:40;27.00;89.50
59556;DHT22;45374;52.746;6.304;2023-06-10T12:53:06;27.00;89.80
59556;DHT22;45374;52.746;6.304;2023-06-10T12:55:33;27.10;91.10
59556;DHT22;45374;52.746;6.304;2023-06-10T12:57:59;27.00;87.70
59556;DHT22;45374;52.746;6.304;2023-06-10T13:00:25;27.00;86.90
59556;DHT22;45374;52.746;6.304;2023-06-10T13:02:52;27.00;87.50
59556;DHT22;45374;52.746;6.304;2023-06-10T13:05:19;27.00;87.10
59556;DHT22;45374;52.746;6.304;2023-06-10T13:07:46;27.00;87.30
59556;DHT22;45374;52.746;6.304;2023-06-10T13:10:12;27.00;85.80
59556;DHT22;45374;52.746;6.304;2023-06-10T13:12:40;27.00;85.40
59556;DHT22;45374;52.746;6.304;2023-06-10T13:15:06;27.00;85.30
59556;DHT22;45374;52.746;6.304;2023-06-10T13:17:31;27.00;86.70
59556;DHT22;45374;52.746;6.304;2023-06-10T13:19:59;27.00;85.10
59556;DHT22;45374;52.746;6.304;2023-06-10T13:22:25;27.00;85.00
59556;DHT22;45374;52.746;6.304;2023-06-10T13:24:52;27.00;80.00
59556;DHT22;45374;52.746;6.304;2023-06-10T13:27:17;27.00;82.60
59556;DHT22;45374;52.746;6.304;2023-06-10T13:29:43;27.10;82.50
59556;DHT22;45374;52.746;6.304;2023-06-10T13:32:09;27.00;83.30
59556;DHT22;45374;52.746;6.304;2023-06-10T13:34:35;27.10;79.20
59556;DHT22;45374;52.746;6.304;2023-06-10T13:37:01;27.10;79.90
59556;DHT22;45374;52.746;6.304;2023-06-10T13:39:29;27.10;78.50
59556;DHT22;45374;52.746;6.304;2023-06-10T13:41:54;27.00;75.20
59556;DHT22;45374;52.746;6.304;2023-06-10T13:44:20;27.00;78.10
59556;DHT22;45374;52.746;6.304;2023-06-10T13:46:45;27.00;76.30
59556;DHT22;45374;52.746;6.304;2023-06-10T13:49:11;27.00;77.70
59556;DHT22;45374;52.746;6.304;2023-06-10T13:51:37;27.00;78.40
59556;DHT22;45374;52.746;6.304;2023-06-10T13:54:02;27.00;75.20
59556;DHT22;45374;52.746;6.304;2023-06-10T13:56:28;27.10;81.30
59556;DHT22;45374;52.746;6.304;2023-06-10T13:58:53;27.10;81.40
59556;DHT22;45374;52.746;6.304;2023-06-10T14:01:19;27.00;79.50
59556;DHT22;45374;52.746;6.304;2023-06-10T14:03:45;27.00;79.00
59556;DHT22;45374;52.746;6.304;2023-06-10T14:06:10;27.10;80.40
59556;DHT22;45374;52.746;6.304;2023-06-10T14:08:38;27.10;77.50
59556;DHT22;45374;52.746;6.304;2023-06-10T14:11:04;27.10;74.70
59556;DHT22;45374;52.746;6.304;2023-06-10T14:13:29;27.10;78.50
59556;DHT22;45374;52.746;6.304;2023-06-10T14:15:55;27.10;77.10
59556;DHT22;45374;52.746;6.304;2023-06-10T14:18:20;27.10;78.00
59556;DHT22;45374;52.746;6.304;2023-06-10T14:20:46;27.10;70.70
59556;DHT22;45374;52.746;6.304;2023-06-10T14:23:11;27.20;74.50
59556;DHT22;45374;52.746;6.304;2023-06-10T14:25:37;27.10;74.10
59556;DHT22;45374;52.746;6.304;2023-06-10T14:28:03;27.20;72.20
59556;DHT22;45374;52.746;6.304;2023-06-10T14:30:28;27.20;72.50
59556;DHT22;45374;52.746;6.304;2023-06-10T14:32:54;27.20;77.20
59556;DHT22;45374;52.746;6.304;2023-06-10T14:35:19;27.20;75.80
59556;DHT22;45374;52.746;6.304;2023-06-10T14:37:46;27.20;74.60
59556;DHT22;45374;52.746;6.304;2023-06-10T14:40:12;27.20;80.20
59556;DHT22;45374;52.746;6.304;2023-06-10T14:42:37;27.20;74.10
59556;DHT22;45374;52.746;6.304;2023-06-10T14:45:04;27.20;73.40
59556;DHT22;45374;52.746;6.304;2023-06-10T14:47:30;27.30;79.90
59556;DHT22;45374;52.746;6.304;2023-06-10T14:49:56;27.30;75.70
59556;DHT22;45374;52.746;6.304;2023-06-10T14:52:22;27.30;76.90
59556;DHT22;45374;52.746;6.304;2023-06-10T14:54:47;27.30;76.60
59556;DHT22;45374;52.746;6.304;2023-06-10T14:57:13;27.30;77.40
59556;DHT22;45374;52.746;6.304;2023-06-10T14:59:39;27.30;76.90
59556;DHT22;45374;52.746;6.304;2023-06-10T15:02:05;27.30;75.70
59556;DHT22;45374;52.746;6.304;2023-06-10T15:04:30;27.30;76.00
59556;DHT22;45374;52.746;6.304;2023-06-10T15:06:56;27.40;77.60
59556;DHT22;45374;52.746;6.304;2023-06-10T15:09:21;27.50;79.70
59556;DHT22;45374;52.746;6.304;2023-06-10T15:11:47;27.50;78.80
59556;DHT22;45374;52.746;6.304;2023-06-10T15:14:13;27.50;77.20
59556;DHT22;45374;52.746;6.304;2023-06-10T15:16:38;27.50;75.40
59556;DHT22;45374;52.746;6.304;2023-06-10T15:19:04;27.40;74.00
59556;DHT22;45374;52.746;6.304;2023-06-10T15:21:32;27.50;74.70
59556;DHT22;45374;52.746;6.304;2023-06-10T15:23:57;27.40;76.10
59556;DHT22;45374;52.746;6.304;2023-06-10T15:26:23;27.50;77.90
59556;DHT22;45374;52.746;6.304;2023-06-10T15:28:48;27.40;76.40
59556;DHT22;45374;52.746;6.304;2023-06-10T15:31:14;27.50;77.20
59556;DHT22;45374;52.746;6.304;2023-06-10T15:33:39;27.50;77.80
59556;DHT22;45374;52.746;6.304;2023-06-10T15:36:05;27.60;76.80
59556;DHT22;45374;52.746;6.304;2023-06-10T15:38:31;27.60;76.60
59556;DHT22;45374;52.746;6.304;2023-06-10T15:40:56;27.70;75.50
59556;DHT22;45374;52.746;6.304;2023-06-10T15:43:22;27.70;76.90
59556;DHT22;45374;52.746;6.304;2023-06-10T15:45:48;27.70;78.40